Time;durP1;ratioP1;P1;durP2;ratioP2;P2;SDS_P1;SDS_P2;PMS_P1;PMS_P2;Temp;Humidity;BMP_temperature;BMP_pressure;BME280_temperature;BME280_humidity;BME280_pressure;Samples;Min_cycle;Max_cycle;Signal;HPM_P1;HPM_P2
2022/09/04 02:47:03;;;;;;;32.07;22.37;;;23.10;69.40;;;;;;5010626;28;20231;-93
2022/09/04 02:50:00;;;;;;;23.67;21.10;;;23.00;69.60;;;;;;5055997;28;20224;-96
2022/09/04 03:46:24;;;;;;;20.93;17.90;;;22.60;70.50;;;;;;5005030;28;20266;-94
2022/09/04 04:02:25;;;;;;;19.73;17.67;;;22.50;70.60;;;;;;4997386;28;20204;-95
2022/09/04 04:15:19;;;;;;;20.50;16.80;;;22.40;69.50;;;;;;4964512;28;20202;-95
2022/09/04 04:28:40;;;;;;;17.10;14.83;;;22.30;70.10;;;;;;4994901;28;20225;-95
2022/09/04 05:05:30;;;;;;;17.87;15.73;;;21.80;70.50;;;;;;6177506;23;20181;-93
2022/09/04 05:08:28;;;;;;;16.77;15.17;;;21.80;70.50;;;;;;6186089;23;20206;-95
2022/09/04 05:18:41;;;;;;;17.70;15.80;;;21.70;70.20;;;;;;6135594;23;20192;-95
2022/09/04 05:35:25;;;;;;;13.67;12.03;;;21.50;70.50;;;;;;6148894;23;20204;-94
2022/09/04 05:59:23;;;;;;;18.57;14.70;;;21.40;71.40;;;;;;6096125;23;20226;-92
2022/09/04 06:03:13;;;;;;;16.73;14.77;;;21.40;72.40;;;;;;6113346;23;20210;-94
2022/09/04 06:06:34;;;;;;;21.50;18.57;;;21.40;72.70;;;;;;6118432;23;20179;-95
2022/09/04 06:59:39;;;;;;;22.00;19.70;;;21.60;75.90;;;;;;5974413;24;20166;-94
2022/09/04 07:05:31;;;;;;;25.77;21.90;;;21.70;76.60;;;;;;5974121;24;20178;-96
2022/09/04 07:08:32;;;;;;;27.83;22.77;;;21.70;76.20;;;;;;5944121;24;20215;-96
2022/09/04 07:29:55;;;;;;;32.53;26.73;;;22.00;78.50;;;;;;6069671;23;20187;-94
2022/09/04 07:32:34;;;;;;;39.33;27.87;;;22.10;80.50;;;;;;6066029;23;20616;-92
2022/09/04 07:35:11;;;;;;;34.93;27.83;;;22.20;79.70;;;;;;6067221;23;20202;-95
2022/09/04 07:38:34;;;;;;;35.63;27.10;;;22.20;80.10;;;;;;6074816;23;20170;-95
2022/09/04 07:45:36;;;;;;;33.90;27.20;;;22.40;81.10;;;;;;6005271;23;20210;-96
2022/09/04 08:08:36;;;;;;;35.07;26.57;;;23.10;82.00;;;;;;5944983;24;20206;-96
2022/09/04 08:11:46;;;;;;;36.30;27.43;;;23.20;82.60;;;;;;5947536;24;20179;-96
2022/09/04 08:25:12;;;;;;;29.50;23.70;;;23.60;81.40;;;;;;5990113;23;20653;-96
2022/09/04 08:34:41;;;;;;;23.63;19.00;;;23.90;80.00;;;;;;6058316;23;20196;-95
2022/09/04 08:38:04;;;;;;;22.10;18.07;;;24.10;79.60;;;;;;6057148;23;20617;-95
2022/09/04 08:41:01;;;;;;;19.17;16.30;;;24.20;79.70;;;;;;6057406;23;20226;-96
2022/09/04 08:44:14;;;;;;;20.33;16.03;;;24.30;78.80;;;;;;6057107;23;20179;-96
2022/09/04 08:54:19;;;;;;;16.20;13.73;;;24.70;76.80;;;;;;6054693;23;20224;-96
2022/09/04 09:00:06;;;;;;;12.83;10.60;;;25.00;76.60;;;;;;6055792;23;20176;-96
2022/09/04 09:03:13;;;;;;;13.30;11.53;;;25.20;75.40;;;;;;6059361;23;20176;-96
2022/09/04 09:13:12;;;;;;;15.37;10.87;;;25.90;73.90;;;;;;6009883;23;20243;-96
2022/09/04 09:16:20;;;;;;;12.93;11.30;;;26.20;73.60;;;;;;6059258;23;20179;-96
2022/09/04 09:19:22;;;;;;;13.67;12.20;;;26.40;72.60;;;;;;6049151;23;20261;-96
2022/09/04 09:22:12;;;;;;;12.27;11.07;;;26.60;71.90;;;;;;6035009;23;20187;-96
2022/09/04 09:25:22;;;;;;;12.13;10.87;;;26.80;71.50;;;;;;6043882;23;20188;-96
2022/09/04 09:28:27;;;;;;;12.80;11.40;;;27.00;71.50;;;;;;6052517;23;20176;-96
2022/09/04 09:31:44;;;;;;;16.13;13.07;;;27.30;71.00;;;;;;6056863;23;20216;-96
2022/09/04 09:34:54;;;;;;;11.97;10.77;;;27.50;70.30;;;;;;6065011;23;20204;-96
2022/09/04 09:37:52;;;;;;;13.83;11.40;;;27.80;69.10;;;;;;6053279;23;20188;-96
2022/09/04 09:40:50;;;;;;;14.20;12.17;;;28.00;68.80;;;;;;5995372;23;20176;-96
2022/09/04 09:43:57;;;;;;;13.20;11.80;;;28.20;68.00;;;;;;6053401;23;20276;-96
2022/09/04 09:46:52;;;;;;;13.40;11.47;;;28.40;66.20;;;;;;6045937;23;20187;-96
2022/09/04 09:50:01;;;;;;;12.70;11.20;;;28.70;66.70;;;;;;6052361;23;20232;-96
2022/09/04 09:52:58;;;;;;;15.10;11.90;;;28.90;66.00;;;;;;6054929;23;20187;-96
2022/09/04 09:59:31;;;;;;;16.50;10.30;;;29.30;64.20;;;;;;6049750;23;20184;-96
2022/09/04 10:06:12;;;;;;;15.30;11.40;;;29.70;63.20;;;;;;6057858;23;20192;-96
2022/09/04 10:09:20;;;;;;;11.17;9.20;;;29.90;61.70;;;;;;6048696;23;20184;-96
2022/09/04 10:12:11;;;;;;;10.80;8.03;;;30.10;60.80;;;;;;5944015;24;20202;-95
2022/09/04 10:15:03;;;;;;;9.40;6.70;;;30.30;59.30;;;;;;6053639;23;20200;-96
2022/09/04 10:18:07;;;;;;;10.50;7.70;;;30.50;58.90;;;;;;6051999;23;20200;-94
2022/09/04 10:21:11;;;;;;;11.83;7.73;;;30.60;58.90;;;;;;6045563;23;20179;-96
2022/09/04 10:24:09;;;;;;;6.82;5.28;;;30.80;57.30;;;;;;6053361;23;20251;-96
2022/09/04 10:30:10;;;;;;;6.05;3.85;;;31.10;56.60;;;;;;5925359;24;20268;-96
2022/09/04 10:33:43;;;;;;;;;;;;;;;;;;;;;
2022/09/04 10:36:28;;;;;;;6.72;4.32;;;31.30;54.90;;;;;;6156524;23;20192;-95
2022/09/04 10:42:27;;;;;;;5.25;3.35;;;31.30;54.00;;;;;;6157243;23;20211;-95
2022/09/04 10:45:18;;;;;;;6.88;3.88;;;31.40;54.30;;;;;;6159785;23;20691;-95
2022/09/04 10:48:15;;;;;;;7.82;3.60;;;31.40;53.10;;;;;;6158879;23;20204;-96
2022/09/04 10:51:08;;;;;;;6.63;3.90;;;31.40;53.30;;;;;;6167103;23;20163;-96
2022/09/04 10:54:24;;;;;;;8.95;4.68;;;31.50;53.10;;;;;;6179606;23;20188;-95
2022/09/04 10:57:12;;;;;;;5.03;3.08;;;31.60;52.50;;;;;;6121808;23;20178;-96
2022/09/04 10:59:58;;;;;;;3.78;2.45;;;31.60;52.50;;;;;;6177973;23;20174;-96
2022/09/04 11:03:12;;;;;;;3.65;2.45;;;31.70;52.10;;;;;;6161351;23;20173;-95
2022/09/04 11:06:25;;;;;;;4.85;2.95;;;31.80;52.40;;;;;;6156858;23;20179;-96
2022/09/04 11:09:27;;;;;;;4.47;2.90;;;31.80;52.10;;;;;;6014346;23;20181;-96
2022/09/04 11:12:33;;;;;;;5.03;3.25;;;31.90;51.10;;;;;;6067425;23;20181;-96
2022/09/04 11:15:41;;;;;;;5.53;3.05;;;32.00;50.80;;;;;;6167375;23;20216;-95
2022/09/04 11:18:36;;;;;;;5.13;3.00;;;32.00;50.90;;;;;;6162056;23;20224;-96
2022/09/04 11:21:41;;;;;;;4.15;2.42;;;32.00;49.80;;;;;;6163463;23;20193;-96
2022/09/04 11:24:46;;;;;;;8.18;3.50;;;32.00;50.40;;;;;;6158274;23;20259;-95
2022/09/04 11:27:59;;;;;;;4.43;2.75;;;32.10;50.00;;;;;;6160405;23;20181;-96
2022/09/04 11:30:56;;;;;;;7.55;4.07;;;32.10;49.40;;;;;;6144469;23;20639;-94
2022/09/04 11:34:00;;;;;;;5.07;2.60;;;32.10;49.20;;;;;;6158539;23;20550;-96
2022/09/04 11:37:01;;;;;;;6.28;2.85;;;32.10;48.80;;;;;;6120041;23;20984;-94
2022/09/04 11:40:07;;;;;;;12.05;5.28;;;32.20;48.50;;;;;;6159403;23;20177;-96
2022/09/04 11:42:43;;;;;;;7.70;3.70;;;32.20;48.50;;;;;;6169849;23;20166;-96
2022/09/04 11:46:01;;;;;;;4.32;2.85;;;32.30;48.60;;;;;;6159570;23;20165;-96
2022/09/04 11:49:10;;;;;;;7.25;3.75;;;32.30;48.30;;;;;;6037814;23;20184;-96
2022/09/04 11:52:03;;;;;;;6.70;3.70;;;32.30;47.20;;;;;;6157307;23;20220;-93
2022/09/04 11:54:55;;;;;;;7.28;4.13;;;32.20;47.00;;;;;;6154746;23;20201;-96
2022/09/04 11:57:35;;;;;;;4.85;3.13;;;32.20;47.10;;;;;;6154732;23;20165;-96
2022/09/04 12:03:28;;;;;;;6.72;3.22;;;32.10;47.50;;;;;;6160075;23;20224;-95
2022/09/04 12:06:12;;;;;;;9.65;5.00;;;32.10;47.30;;;;;;6124554;23;20221;-93
2022/09/04 12:09:11;;;;;;;6.75;3.92;;;32.10;46.90;;;;;;6123863;23;20234;-93
2022/09/04 12:12:13;;;;;;;8.13;4.55;;;32.10;47.70;;;;;;6122827;23;20174;-94
2022/09/04 12:15:06;;;;;;;7.53;4.45;;;32.10;47.10;;;;;;6114770;23;20202;-92
2022/09/04 12:18:03;;;;;;;4.78;3.65;;;32.10;46.70;;;;;;6125351;23;20233;-95
2022/09/04 12:21:01;;;;;;;7.53;4.80;;;32.10;46.80;;;;;;6122771;23;20178;-93
2022/09/04 12:24:09;;;;;;;6.32;4.35;;;32.10;46.90;;;;;;6122114;23;20170;-94
2022/09/04 12:27:00;;;;;;;4.80;3.53;;;32.10;47.30;;;;;;6124603;23;20208;-94
2022/09/04 12:40:16;;;;;;;6.72;3.78;;;32.40;46.40;;;;;;6129609;23;20834;-94
2022/09/04 12:42:50;;;;;;;5.97;3.70;;;32.40;46.00;;;;;;6108680;23;20213;-94
2022/09/04 12:45:26;;;;;;;8.10;4.53;;;32.50;46.00;;;;;;6122373;23;20221;-93
2022/09/04 12:48:43;;;;;;;5.35;3.08;;;32.60;45.50;;;;;;6124077;23;20178;-95
2022/09/04 12:51:15;;;;;;;3.92;2.80;;;32.60;45.10;;;;;;6128711;23;20779;-95
2022/09/04 12:54:11;;;;;;;10.07;5.32;;;32.70;45.80;;;;;;6126813;23;20174;-93
2022/09/04 12:56:47;;;;;;;10.80;5.82;;;32.70;44.90;;;;;;6123519;23;20182;-94
2022/09/04 12:59:47;;;;;;;6.53;3.78;;;32.70;44.90;;;;;;6129489;23;20178;-92
2022/09/04 13:02:26;;;;;;;4.35;2.80;;;32.70;44.60;;;;;;6116352;23;20193;-95
2022/09/04 13:06:03;;;;;;;4.47;2.70;;;32.70;44.70;;;;;;6127905;23;20194;-96
2022/09/04 13:08:43;;;;;;;4.95;2.80;;;32.60;44.60;;;;;;6131059;23;20623;-95
2022/09/04 13:11:26;;;;;;;5.57;3.42;;;32.60;44.70;;;;;;6128109;23;20181;-95
2022/09/04 13:14:09;;;;;;;7.78;3.83;;;32.60;44.50;;;;;;6127020;23;20170;-96
2022/09/04 13:16:52;;;;;;;4.03;2.50;;;32.60;44.10;;;;;;6130631;23;20178;-96
2022/09/04 13:19:28;;;;;;;5.50;2.90;;;32.70;44.60;;;;;;6129373;23;20624;-93
2022/09/04 13:22:34;;;;;;;6.45;3.38;;;32.70;44.10;;;;;;6127024;23;20198;-94
2022/09/04 13:25:28;;;;;;;6.72;3.50;;;32.70;43.80;;;;;;6126076;23;20188;-95
2022/09/04 13:28:10;;;;;;;5.25;2.97;;;32.80;43.80;;;;;;6124505;23;21133;-94
2022/09/04 13:31:05;;;;;;;7.82;4.15;;;32.80;43.70;;;;;;6131615;23;20194;-96
2022/09/04 13:33:52;;;;;;;10.77;5.80;;;32.80;44.00;;;;;;6139876;23;20560;-93
2022/09/04 13:36:34;;;;;;;4.65;2.67;;;32.90;43.70;;;;;;6137804;23;20701;-96
2022/09/04 13:39:34;;;;;;;7.07;3.85;;;33.00;44.40;;;;;;6132498;23;20224;-95
2022/09/04 13:42:32;;;;;;;10.05;5.63;;;33.00;43.60;;;;;;6122937;23;20186;-94
2022/09/04 13:45:47;;;;;;;7.97;4.47;;;33.00;43.70;;;;;;6125499;23;20178;-94
2022/09/04 13:48:40;;;;;;;3.90;2.25;;;33.10;43.30;;;;;;6141518;23;20477;-95
2022/09/04 13:54:39;;;;;;;2.90;2.47;;;33.00;43.00;;;;;;6127086;23;20495;-94
2022/09/04 13:57:27;;;;;;;5.25;3.13;;;33.00;43.00;;;;;;6130163;23;20170;-94
2022/09/04 14:00:10;;;;;;;5.85;3.30;;;32.90;43.10;;;;;;6124893;23;20206;-96
2022/09/04 14:02:40;;;;;;;4.53;2.85;;;32.80;42.90;;;;;;6126641;23;20171;-95
2022/09/04 14:05:12;;;;;;;4.85;3.00;;;32.80;43.70;;;;;;6127896;23;20261;-95
2022/09/04 14:08:14;;;;;;;5.45;2.80;;;32.70;43.70;;;;;;6127818;23;20692;-96
2022/09/04 14:11:49;;;;;;;4.05;2.83;;;32.60;43.70;;;;;;6127289;23;20244;-96
2022/09/04 14:14:54;;;;;;;7.32;3.65;;;32.60;43.50;;;;;;5992109;23;20187;-96
2022/09/04 14:17:28;;;;;;;4.15;2.95;;;32.60;43.40;;;;;;6124919;23;20185;-95
2022/09/04 14:20:13;;;;;;;5.00;3.40;;;32.50;43.70;;;;;;6126122;23;20205;-95
2022/09/04 14:22:53;;;;;;;6.15;2.83;;;32.50;44.40;;;;;;6124851;23;20178;-94
2022/09/04 14:25:26;;;;;;;5.97;3.60;;;32.40;44.00;;;;;;6126342;23;20204;-92
2022/09/04 14:31:06;;;;;;;10.23;3.10;;;32.40;43.70;;;;;;6127266;23;20282;-94
2022/09/04 14:33:46;;;;;;;5.47;3.22;;;32.30;43.50;;;;;;6128657;23;20173;-94
2022/09/04 14:36:55;;;;;;;7.70;4.10;;;32.30;43.20;;;;;;6127346;23;20190;-95
2022/09/04 14:40:11;;;;;;;5.65;3.00;;;32.20;43.00;;;;;;6137312;23;20174;-96
2022/09/04 14:42:48;;;;;;;5.72;3.40;;;32.10;43.10;;;;;;6034713;23;20202;-94
2022/09/04 14:45:39;;;;;;;3.60;1.90;;;32.00;43.00;;;;;;6036830;23;20180;-94
2022/09/04 14:48:13;;;;;;;7.18;3.45;;;31.90;43.30;;;;;;6100594;23;20178;-94
2022/09/04 14:53:34;;;;;;;8.65;3.50;;;31.80;43.30;;;;;;6116763;23;20175;-93
2022/09/04 14:56:27;;;;;;;6.13;3.33;;;31.70;43.50;;;;;;6124918;23;20233;-93
2022/09/04 14:59:06;;;;;;;6.15;3.55;;;31.70;43.50;;;;;;6121372;23;20268;-93
2022/09/04 15:04:50;;;;;;;8.63;4.23;;;31.70;43.20;;;;;;6127368;23;20185;-93
2022/09/04 15:11:12;;;;;;;6.40;3.40;;;31.60;43.00;;;;;;6144231;23;20220;-94
2022/09/04 15:13:54;;;;;;;7.45;3.20;;;31.60;42.70;;;;;;6147925;23;20158;-94
2022/09/04 15:16:29;;;;;;;8.53;4.30;;;31.50;42.70;;;;;;6146969;23;20233;-96
2022/09/04 15:19:07;;;;;;;4.90;2.73;;;31.50;43.00;;;;;;6138154;23;20178;-95
2022/09/04 15:22:32;;;;;;;5.00;2.63;;;31.40;43.10;;;;;;6138930;23;20201;-96
2022/09/04 15:25:33;;;;;;;5.53;2.87;;;31.40;42.70;;;;;;6139447;23;20253;-96
2022/09/04 15:28:10;;;;;;;5.03;2.90;;;31.40;42.60;;;;;;6143788;23;20173;-96
2022/09/04 15:30:59;;;;;;;7.50;2.70;;;31.40;42.70;;;;;;6136549;23;20200;-94
2022/09/04 15:33:28;;;;;;;8.10;2.90;;;31.40;42.40;;;;;;6126485;23;20534;-93
2022/09/04 15:36:19;;;;;;;8.30;3.67;;;31.30;42.50;;;;;;6126461;23;20249;-91
2022/09/04 15:38:49;;;;;;;7.67;3.37;;;31.30;42.30;;;;;;6127760;23;20209;-94
2022/09/04 15:41:23;;;;;;;5.43;2.33;;;31.30;42.80;;;;;;6125828;23;20257;-93
2022/09/04 15:44:09;;;;;;;8.20;3.73;;;31.30;42.30;;;;;;6127986;23;20584;-94
2022/09/04 15:49:43;;;;;;;5.57;2.60;;;31.20;42.40;;;;;;6118685;23;20942;-92
2022/09/04 15:52:29;;;;;;;7.17;3.63;;;31.10;42.40;;;;;;6140216;23;20169;-94
2022/09/04 15:55:21;;;;;;;6.30;2.93;;;31.10;42.10;;;;;;6133026;23;20545;-94
2022/09/04 15:58:03;;;;;;;6.27;3.00;;;31.10;41.70;;;;;;6125740;23;20171;-93
2022/09/04 16:00:36;;;;;;;5.13;2.80;;;31.10;41.90;;;;;;6124937;23;20181;-93
2022/09/04 16:03:35;;;;;;;6.57;3.20;;;31.00;42.00;;;;;;6124179;23;20174;-93
2022/09/04 16:08:48;;;;;;;5.20;2.30;;;30.90;41.70;;;;;;6120824;23;20209;-91
2022/09/04 16:11:26;;;;;;;5.43;2.83;;;31.00;41.30;;;;;;6122375;23;20170;-93
2022/09/04 16:13:58;;;;;;;8.63;4.17;;;31.00;41.40;;;;;;6124667;23;20200;-93
2022/09/04 16:16:32;;;;;;;6.07;2.90;;;30.90;41.30;;;;;;6123749;23;20210;-92
2022/09/04 16:19:16;;;;;;;6.93;3.10;;;30.90;41.10;;;;;;6124325;23;20188;-95
2022/09/04 16:21:52;;;;;;;4.93;2.40;;;30.80;40.60;;;;;;6125038;23;20758;-95
2022/09/04 16:24:33;;;;;;;5.33;2.40;;;30.80;40.50;;;;;;6125086;23;20229;-93
2022/09/04 16:27:04;;;;;;;4.77;2.47;;;30.80;40.50;;;;;;6123392;23;20174;-94
2022/09/04 16:29:35;;;;;;;5.83;2.70;;;30.70;40.90;;;;;;6123622;23;20175;-93
2022/09/04 16:32:08;;;;;;;5.47;2.83;;;30.70;40.80;;;;;;6123501;23;20181;-93
2022/09/04 16:34:44;;;;;;;6.07;2.83;;;30.60;40.60;;;;;;6123520;23;20378;-93
2022/09/04 16:37:17;;;;;;;7.77;3.57;;;30.60;40.90;;;;;;6123652;23;20237;-92
2022/09/04 16:40:01;;;;;;;5.40;2.50;;;30.50;40.90;;;;;;6124677;23;20229;-95
2022/09/04 16:42:39;;;;;;;5.17;2.57;;;30.50;40.40;;;;;;6124330;23;20527;-94
2022/09/04 16:45:13;;;;;;;4.83;2.33;;;30.40;40.80;;;;;;6125405;23;20238;-94
2022/09/04 16:47:46;;;;;;;3.77;2.00;;;30.40;41.10;;;;;;6125094;23;20178;-94
2022/09/04 16:50:29;;;;;;;7.67;3.33;;;30.40;41.00;;;;;;6125090;23;20174;-92
2022/09/04 16:56:42;;;;;;;6.03;2.80;;;30.30;41.10;;;;;;6087474;23;20198;-94
2022/09/04 16:59:29;;;;;;;4.07;2.17;;;30.30;41.30;;;;;;6124427;23;20174;-94
2022/09/04 17:02:21;;;;;;;7.87;5.03;;;30.30;41.40;;;;;;6123594;23;20177;-93
2022/09/04 17:04:54;;;;;;;6.33;4.53;;;30.20;43.80;;;;;;6124489;23;20178;-94
2022/09/04 17:07:25;;;;;;;11.47;7.87;;;30.20;44.30;;;;;;6124451;23;20189;-94
2022/09/04 17:10:00;;;;;;;10.40;8.00;;;30.20;46.00;;;;;;6123818;23;20559;-94
2022/09/04 17:13:04;;;;;;;9.57;8.50;;;30.10;46.00;;;;;;6126803;23;20553;-96
2022/09/04 17:15:43;;;;;;;11.50;9.57;;;30.10;47.00;;;;;;6126616;23;20181;-94
2022/09/04 17:18:18;;;;;;;13.50;9.90;;;30.10;47.30;;;;;;6124120;23;20204;-96
2022/09/04 17:20:55;;;;;;;13.17;10.67;;;30.10;47.40;;;;;;6124505;23;20248;-94
2022/09/04 17:23:33;;;;;;;19.00;12.30;;;30.10;48.40;;;;;;6122074;23;20162;-94
2022/09/04 17:26:11;;;;;;;13.00;11.50;;;30.10;48.70;;;;;;6125063;23;20186;-96
2022/09/04 17:28:58;;;;;;;13.47;11.37;;;30.00;49.10;;;;;;6123358;23;20170;-95
2022/09/04 17:31:33;;;;;;;14.40;10.50;;;30.00;49.40;;;;;;6122393;23;20171;-95
2022/09/04 17:34:37;;;;;;;16.53;12.10;;;30.00;49.20;;;;;;6124536;23;20184;-94
2022/09/04 17:37:34;;;;;;;13.03;10.37;;;30.00;49.70;;;;;;6122545;23;20284;-96
2022/09/04 17:40:08;;;;;;;15.37;11.37;;;30.00;49.60;;;;;;6119125;23;20190;-95
2022/09/04 17:43:03;;;;;;;16.20;11.20;;;30.00;49.50;;;;;;6124992;23;20233;-93
2022/09/04 17:45:39;;;;;;;14.67;11.57;;;29.90;49.30;;;;;;6126399;23;20699;-94
2022/09/04 17:48:20;;;;;;;11.80;10.30;;;29.90;50.20;;;;;;6126865;23;20233;-95
2022/09/04 17:51:24;;;;;;;14.73;11.73;;;29.90;50.00;;;;;;6127046;23;20170;-94
2022/09/04 17:53:57;;;;;;;15.27;12.13;;;29.80;50.20;;;;;;6122985;23;20197;-94
2022/09/04 17:56:28;;;;;;;18.70;14.50;;;29.80;50.10;;;;;;6126589;23;20277;-95
2022/09/04 17:59:04;;;;;;;18.30;14.27;;;29.80;50.30;;;;;;6146383;23;20167;-95
2022/09/04 18:01:43;;;;;;;15.50;13.10;;;29.80;50.80;;;;;;6130073;23;20572;-96
2022/09/04 18:04:37;;;;;;;19.07;14.67;;;29.70;51.10;;;;;;6127962;23;20178;-94
2022/09/04 18:07:47;;;;;;;18.87;13.37;;;29.70;51.30;;;;;;6128774;23;20189;-95
2022/09/04 18:10:27;;;;;;;16.23;12.17;;;29.70;51.20;;;;;;6124793;23;20194;-96
2022/09/04 18:13:18;;;;;;;15.47;12.77;;;29.60;51.30;;;;;;6126888;23;20523;-95
2022/09/04 18:15:54;;;;;;;15.07;12.37;;;29.60;51.90;;;;;;6125361;23;20237;-95
2022/09/04 18:18:36;;;;;;;20.37;14.33;;;29.50;51.80;;;;;;6125648;23;20176;-96
2022/09/04 18:24:16;;;;;;;15.50;12.70;;;29.40;52.30;;;;;;6124941;23;20178;-96
2022/09/04 18:27:01;;;;;;;16.67;13.83;;;29.40;52.30;;;;;;6126133;23;20215;-96
2022/09/04 18:29:44;;;;;;;18.17;13.23;;;29.30;52.40;;;;;;6125502;23;20170;-93
2022/09/04 18:32:23;;;;;;;14.00;11.50;;;29.30;52.40;;;;;;6126940;23;20178;-95
2022/09/04 18:35:25;;;;;;;14.27;12.30;;;29.20;52.50;;;;;;6127995;23;20185;-95
2022/09/04 18:38:00;;;;;;;15.47;12.40;;;29.20;52.80;;;;;;6125719;23;20205;-96
2022/09/04 18:43:36;;;;;;;20.20;13.90;;;29.10;53.30;;;;;;6122209;23;20550;-96
2022/09/04 18:52:57;;;;;;;18.07;13.97;;;28.80;53.10;;;;;;6081049;23;20188;-96
2022/09/04 18:55:30;;;;;;;19.17;14.37;;;28.70;53.70;;;;;;6125814;23;20587;-95
2022/09/04 18:58:27;;;;;;;17.40;13.90;;;28.70;53.50;;;;;;6124933;23;20190;-96
2022/09/04 19:01:02;;;;;;;16.30;13.03;;;28.50;54.00;;;;;;6126302;23;20198;-96
2022/09/04 19:04:05;;;;;;;20.17;14.73;;;28.50;53.60;;;;;;6124040;23;20209;-96
2022/09/04 19:09:40;;;;;;;14.97;11.83;;;28.40;53.80;;;;;;6093867;23;20174;-96
2022/09/04 19:12:23;;;;;;;15.37;12.30;;;28.30;54.50;;;;;;6126396;23;20186;-96
2022/09/04 19:14:54;;;;;;;16.30;13.17;;;28.30;54.10;;;;;;6123587;23;20632;-96
2022/09/04 19:17:36;;;;;;;14.47;12.17;;;28.20;54.40;;;;;;6133258;23;20178;-96
2022/09/04 19:20:22;;;;;;;13.80;11.83;;;28.20;54.40;;;;;;6152138;23;20205;-96
2022/09/04 19:23:00;;;;;;;16.57;12.53;;;28.10;54.90;;;;;;6153050;23;20166;-96
2022/09/04 19:32:51;;;;;;;19.57;12.73;;;27.90;55.30;;;;;;6144551;23;20185;-96
2022/09/04 19:35:32;;;;;;;15.17;13.27;;;27.90;55.70;;;;;;6123900;23;20178;-96
2022/09/04 19:38:18;;;;;;;12.50;11.30;;;27.80;55.40;;;;;;6149567;23;20238;-96
2022/09/04 19:44:11;;;;;;;12.57;11.37;;;27.80;56.00;;;;;;6095456;23;20189;-96
2022/09/04 19:47:08;;;;;;;14.77;12.93;;;27.70;55.90;;;;;;6145608;23;20233;-96
2022/09/04 19:49:48;;;;;;;16.50;13.50;;;27.60;56.20;;;;;;6145077;23;20171;-96
2022/09/04 19:52:22;;;;;;;16.87;13.57;;;27.60;56.00;;;;;;6143777;23;20234;-96
2022/09/04 19:55:19;;;;;;;16.60;13.93;;;27.50;56.20;;;;;;6145263;23;20201;-96
2022/09/04 19:58:50;;;;;;;17.43;14.13;;;27.50;56.70;;;;;;6144188;23;20292;-96
2022/09/04 20:01:25;;;;;;;20.00;15.00;;;27.40;56.70;;;;;;6140894;23;20170;-96
2022/09/04 20:04:09;;;;;;;16.23;14.13;;;27.30;56.30;;;;;;6145616;23;20202;-96
2022/09/04 20:09:48;;;;;;;14.80;13.33;;;27.30;56.70;;;;;;6144922;23;20205;-96
2022/09/04 20:15:32;;;;;;;15.60;13.97;;;27.20;57.30;;;;;;6143300;23;20198;-96
2022/09/04 20:18:12;;;;;;;16.60;15.00;;;27.10;56.90;;;;;;6119713;23;20202;-96
2022/09/04 20:20:55;;;;;;;17.20;15.37;;;27.10;57.20;;;;;;6144652;23;20531;-96
2022/09/04 20:23:42;;;;;;;16.80;14.83;;;27.10;57.40;;;;;;6118136;23;20178;-96
2022/09/04 20:29:16;;;;;;;16.47;14.77;;;27.00;57.30;;;;;;6143338;23;20189;-96
2022/09/04 20:32:10;;;;;;;15.93;14.33;;;27.00;57.40;;;;;;6142826;23;20170;-96
2022/09/04 20:41:40;;;;;;;20.30;16.40;;;26.80;57.70;;;;;;6098450;23;20230;-96
2022/09/04 20:44:19;;;;;;;17.73;14.97;;;26.70;57.70;;;;;;6139293;23;20176;-96
2022/09/04 20:47:28;;;;;;;17.53;15.73;;;26.70;57.80;;;;;;6142137;23;20510;-96
2022/09/04 20:50:26;;;;;;;;;;;;;;;;;;;;;
2022/09/04 20:53:17;;;;;;;17.53;15.50;;;26.60;58.10;;;;;;6105053;23;20217;-96
2022/09/04 20:55:58;;;;;;;18.23;15.47;;;26.60;58.40;;;;;;6143864;23;20166;-96
2022/09/04 20:58:53;;;;;;;22.90;17.50;;;26.60;58.40;;;;;;6142225;23;21010;-96
2022/09/04 21:01:34;;;;;;;19.30;15.80;;;26.50;58.60;;;;;;6138423;23;20177;-96
2022/09/04 21:04:10;;;;;;;19.70;16.13;;;26.40;58.30;;;;;;6137551;23;20261;-96
2022/09/04 21:06:51;;;;;;;18.47;15.80;;;26.40;58.30;;;;;;6137819;23;20202;-96
2022/09/04 21:09:32;;;;;;;17.13;14.73;;;26.40;58.80;;;;;;6139127;23;20170;-96
2022/09/04 21:12:16;;;;;;;18.73;16.13;;;26.30;58.80;;;;;;6138431;23;20174;-96
2022/09/04 21:14:54;;;;;;;17.80;15.07;;;26.30;58.90;;;;;;6137883;23;20201;-96
2022/09/04 21:18:09;;;;;;;17.33;15.13;;;26.20;58.60;;;;;;6140237;23;20210;-96
2022/09/04 21:21:11;;;;;;;24.57;18.53;;;26.20;59.20;;;;;;6081387;23;20203;-96
2022/09/04 21:24:17;;;;;;;20.13;16.37;;;26.20;59.30;;;;;;6136191;23;20189;-96
2022/09/04 21:27:20;;;;;;;20.53;16.03;;;26.10;59.20;;;;;;6135714;23;20202;-96
2022/09/04 21:30:14;;;;;;;23.90;18.37;;;26.10;59.20;;;;;;6132076;23;20527;-96
2022/09/04 21:33:12;;;;;;;20.53;16.33;;;26.00;59.30;;;;;;6134076;23;20240;-96
2022/09/04 21:35:54;;;;;;;20.77;16.50;;;25.90;59.40;;;;;;6134765;23;20189;-96
2022/09/04 21:39:10;;;;;;;25.37;17.80;;;25.90;59.40;;;;;;6132911;23;20202;-96
2022/09/04 21:41:59;;;;;;;18.17;16.17;;;25.80;59.60;;;;;;6121977;23;20237;-96
2022/09/04 21:48:18;;;;;;;19.37;16.53;;;25.80;59.60;;;;;;6133032;23;20243;-96
2022/09/04 21:51:39;;;;;;;20.47;15.90;;;25.70;59.60;;;;;;6136925;23;20175;-96
2022/09/04 21:57:59;;;;;;;19.13;16.87;;;25.60;59.70;;;;;;6123577;23;20213;-96
2022/09/04 22:00:28;;;;;;;19.10;16.07;;;25.60;59.80;;;;;;6128958;23;20202;-96
2022/09/04 22:03:18;;;;;;;21.73;17.13;;;25.50;59.10;;;;;;6130967;23;20908;-96
2022/09/04 22:05:53;;;;;;;22.37;16.77;;;25.50;59.80;;;;;;6134499;23;20206;-96
2022/09/04 22:08:41;;;;;;;21.20;16.80;;;25.40;59.40;;;;;;6106890;23;20284;-96
2022/09/04 22:11:35;;;;;;;21.33;15.97;;;25.40;59.80;;;;;;6130876;23;20202;-96
2022/09/04 22:14:14;;;;;;;21.87;16.07;;;25.30;59.70;;;;;;6148962;23;20174;-96
2022/09/04 22:17:23;;;;;;;;;;;;;;;;;;;;;
2022/09/04 22:20:29;;;;;;;15.30;13.50;;;25.30;59.70;;;;;;6131580;23;20667;-96
2022/09/04 22:23:47;;;;;;;15.43;13.93;;;25.20;59.40;;;;;;6131069;23;20166;-96
2022/09/04 22:26:41;;;;;;;16.20;13.57;;;25.20;59.40;;;;;;6131253;23;20178;-96
2022/09/04 22:29:44;;;;;;;17.63;13.53;;;25.20;59.20;;;;;;6132038;23;20174;-96
2022/09/04 22:32:54;;;;;;;15.60;12.03;;;25.10;59.20;;;;;;6129015;23;20199;-96
2022/09/04 22:36:01;;;;;;;15.93;12.33;;;25.10;59.10;;;;;;6140051;23;20185;-96
2022/09/04 22:39:01;;;;;;;15.23;12.40;;;25.10;59.10;;;;;;6074975;23;20200;-96
2022/09/04 22:41:49;;;;;;;15.23;13.30;;;25.00;59.30;;;;;;6136449;23;20176;-96
2022/09/04 22:44:38;;;;;;;14.73;12.23;;;25.00;58.80;;;;;;6131419;23;20166;-96
2022/09/04 22:47:35;;;;;;;16.17;12.07;;;24.90;58.70;;;;;;6134588;23;20189;-96
2022/09/04 22:50:32;;;;;;;14.13;11.57;;;24.90;58.90;;;;;;6135518;23;20170;-96
2022/09/04 22:53:35;;;;;;;13.93;10.20;;;24.80;58.70;;;;;;6136742;23;20174;-96
2022/09/04 22:56:18;;;;;;;11.03;8.83;;;24.80;58.50;;;;;;6134838;23;20265;-96
2022/09/04 22:59:16;;;;;;;11.60;8.97;;;24.80;58.10;;;;;;6134090;23;20210;-96
2022/09/04 23:02:11;;;;;;;10.90;8.00;;;24.70;57.90;;;;;;6137847;23;20201;-96
2022/09/04 23:04:56;;;;;;;12.10;7.37;;;24.70;57.60;;;;;;6132347;23;20200;-96
2022/09/04 23:08:04;;;;;;;12.20;8.03;;;24.60;57.70;;;;;;6128773;23;20181;-96
2022/09/04 23:11:18;;;;;;;9.87;7.07;;;24.60;57.10;;;;;;6129505;23;20173;-96
2022/09/04 23:14:11;;;;;;;10.20;7.10;;;24.50;56.90;;;;;;6129848;23;20183;-96
2022/09/04 23:17:35;;;;;;;10.27;6.73;;;24.50;57.10;;;;;;6128335;23;20178;-96
2022/09/04 23:21:15;;;;;;;;;;;;;;;;;;;;;
2022/09/04 23:24:34;;;;;;;12.70;7.57;;;24.40;57.00;;;;;;6095681;23;20173;-96
2022/09/04 23:31:13;;;;;;;13.10;7.67;;;24.30;56.90;;;;;;6128351;23;20544;-96
2022/09/04 23:34:00;;;;;;;11.70;6.73;;;24.30;56.60;;;;;;6147905;23;20196;-96
2022/09/04 23:36:57;;;;;;;11.33;6.47;;;24.20;56.60;;;;;;6149720;23;20174;-96
2022/09/04 23:40:14;;;;;;;7.90;4.73;;;24.20;56.40;;;;;;6150173;23;20177;-96
2022/09/04 23:43:33;;;;;;;12.50;6.07;;;24.10;56.30;;;;;;6058394;23;20178;-96
2022/09/04 23:46:26;;;;;;;7.30;4.63;;;24.10;56.30;;;;;;6015793;23;20238;-96
2022/09/04 23:49:31;;;;;;;10.37;5.07;;;24.10;56.20;;;;;;6014348;23;20832;-96
2022/09/04 23:52:15;;;;;;;11.27;5.57;;;24.00;56.20;;;;;;6128860;23;20185;-96
2022/09/04 23:54:59;;;;;;;4.07;3.67;;;23.90;56.20;;;;;;6128012;23;20181;-96
2022/09/04 23:57:38;;;;;;;13.87;5.77;;;24.00;56.40;;;;;;6127164;23;20215;-96
